Time;durP1;ratioP1;P1;durP2;ratioP2;P2;SDS_P1;SDS_P2;PMS_P1;PMS_P2;Temp;Humidity;BMP_temperature;BMP_pressure;BME280_temperature;BME280_humidity;BME280_pressure;Samples;Min_cycle;Max_cycle;Signal;HPM_P1;HPM_P2
2023/06/06 00:02:29;;;;;;;7.70;2.60;;;;;;;17.46;43.21;100850.44;220434;1266;139363;-88
2023/06/06 00:07:32;;;;;;;7.40;3.10;;;;;;;17.46;43.32;100850.92;221054;1268;139076;-87
2023/06/06 00:12:33;;;;;;;8.70;2.90;;;;;;;17.44;43.49;100850.78;220524;1266;140018;-87
2023/06/06 00:17:33;;;;;;;8.50;2.40;;;;;;;17.42;43.72;100851.60;220943;1266;138644;-87
2023/06/06 00:22:38;;;;;;;6.10;3.00;;;;;;;17.40;43.97;100852.48;220572;1266;139826;-87
2023/06/06 00:27:39;;;;;;;9.30;3.00;;;;;;;17.37;44.17;100851.21;220818;1268;108162;-87
2023/06/06 00:32:39;;;;;;;7.30;2.60;;;;;;;17.36;44.15;100842.64;220345;1266;139977;-87
2023/06/06 00:37:39;;;;;;;7.30;2.80;;;;;;;17.34;44.35;100842.81;220822;1266;137769;-88
2023/06/06 00:42:40;;;;;;;6.60;2.50;;;;;;;17.32;44.57;100841.81;220401;1268;138582;-87
2023/06/06 00:47:41;;;;;;;7.40;2.70;;;;;;;17.30;44.70;100841.04;221150;1266;138964;-89
2023/06/06 00:52:46;;;;;;;7.30;3.00;;;;;;;17.27;44.94;100837.80;220534;1266;139530;-88
2023/06/06 00:57:47;;;;;;;8.30;2.90;;;;;;;17.24;44.93;100832.98;220931;1268;108547;-88
2023/06/06 01:02:48;;;;;;;8.60;2.70;;;;;;;17.19;45.08;100834.55;220547;1266;139799;-88
2023/06/06 01:07:49;;;;;;;7.80;2.70;;;;;;;17.17;45.35;100830.27;221033;1266;137781;-89
2023/06/06 01:13:06;;;;;;;7.40;2.80;;;;;;;17.15;45.50;100823.05;220496;1266;140346;-88
2023/06/06 01:18:06;;;;;;;6.10;2.80;;;;;;;17.13;45.76;100827.20;220889;1265;137930;-89
2023/06/06 01:23:10;;;;;;;11.60;2.80;;;;;;;17.09;45.83;100827.40;220653;1266;141840;-89
2023/06/06 01:28:13;;;;;;;8.70;3.00;;;;;;;17.04;46.12;100822.60;221576;1264;96575;-88
2023/06/06 01:33:23;;;;;;;7.20;2.90;;;;;;;17.01;46.04;100822.15;220411;1268;139242;-89
2023/06/06 01:38:26;;;;;;;6.80;2.80;;;;;;;16.96;46.21;100819.80;221030;1268;137741;-88
2023/06/06 01:43:30;;;;;;;7.90;2.60;;;;;;;16.94;46.26;100823.55;220529;1266;138582;-89
2023/06/06 01:48:32;;;;;;;9.00;2.70;;;;;;;16.93;46.67;100824.92;221080;1268;138204;-88
2023/06/06 01:53:32;;;;;;;9.40;2.90;;;;;;;16.94;46.60;100824.45;220474;1266;140157;-89
2023/06/06 01:58:32;;;;;;;7.00;2.80;;;;;;;16.93;46.68;100826.59;221114;1266;96725;-89
2023/06/06 02:03:33;;;;;;;8.90;3.70;;;;;;;16.93;46.92;100829.69;220512;1266;139723;-89
2023/06/06 02:08:33;;;;;;;5.90;2.70;;;;;;;16.94;47.01;100834.69;221009;1268;138728;-88
2023/06/06 02:13:34;;;;;;;6.30;2.90;;;;;;;16.92;47.16;100836.69;220493;1266;140678;-89
2023/06/06 02:18:35;;;;;;;5.60;2.40;;;;;;;16.90;47.34;100830.81;220924;1268;138205;-89
2023/06/06 02:23:36;;;;;;;8.20;2.50;;;;;;;16.87;47.49;100832.98;220454;1268;140363;-89
2023/06/06 02:28:36;;;;;;;7.10;2.80;;;;;;;16.84;47.59;100831.52;221234;1266;97853;-89
2023/06/06 02:33:36;;;;;;;7.70;2.90;;;;;;;16.81;47.76;100826.30;220406;1266;140607;-89
2023/06/06 02:38:37;;;;;;;8.60;3.00;;;;;;;16.79;48.08;100826.46;221206;1266;137599;-90
2023/06/06 02:43:39;;;;;;;8.90;2.70;;;;;;;16.76;47.99;100828.48;220449;1266;140204;-89
2023/06/06 02:48:40;;;;;;;5.90;2.50;;;;;;;16.73;48.30;100826.19;220984;1266;138271;-89
2023/06/06 02:53:42;;;;;;;7.00;2.70;;;;;;;16.70;48.51;100828.59;220333;1266;141734;-89
2023/06/06 02:58:43;;;;;;;8.90;3.30;;;;;;;16.69;48.61;100830.35;220903;1268;138650;-89
2023/06/06 03:03:43;;;;;;;6.70;3.40;;;;;;;16.67;48.77;100826.88;220494;1268;140460;-89
2023/06/06 03:08:44;;;;;;;9.00;3.10;;;;;;;16.67;49.28;100834.02;220965;1266;138345;-89
2023/06/06 03:13:45;;;;;;;9.40;2.70;;;;;;;16.67;49.33;100832.27;220519;1266;139271;-88
2023/06/06 03:18:46;;;;;;;8.40;3.50;;;;;;;16.65;49.73;100831.41;220872;1268;138373;-88
2023/06/06 03:23:47;;;;;;;8.40;4.20;;;;;;;16.63;49.93;100829.20;220529;1266;151825;-89
2023/06/06 03:28:48;;;;;;;10.30;3.30;;;;;;;16.61;50.15;100828.73;220347;1266;139672;-87
2023/06/06 03:33:48;;;;;;;9.30;3.30;;;;;;;16.61;50.34;100829.61;221247;1266;95188;-89
2023/06/06 03:38:49;;;;;;;10.00;3.50;;;;;;;16.61;50.81;100830.48;220561;1266;139881;-88
2023/06/06 03:43:49;;;;;;;8.40;4.10;;;;;;;16.60;50.89;100829.55;220950;1266;138177;-89
2023/06/06 03:48:50;;;;;;;7.80;2.90;;;;;;;16.61;51.45;100832.80;220462;1265;139213;-88
2023/06/06 03:53:50;;;;;;;8.40;3.30;;;;;;;16.64;51.56;100837.38;221003;1265;137794;-88
2023/06/06 03:58:50;;;;;;;7.40;3.70;;;;;;;16.68;51.76;100841.70;220517;1265;138749;-89
2023/06/06 04:03:51;;;;;;;8.80;3.40;;;;;;;16.73;51.67;100844.37;221239;1268;96577;-89
2023/06/06 04:08:51;;;;;;;6.50;2.90;;;;;;;16.81;51.79;100846.23;220357;1268;140697;-90
2023/06/06 04:13:52;;;;;;;8.80;3.70;;;;;;;16.87;51.90;100838.70;220892;1269;137981;-92
2023/06/06 04:18:52;;;;;;;11.30;4.70;;;;;;;16.91;52.35;100842.17;220490;1267;140169;-89
2023/06/06 04:23:53;;;;;;;8.60;3.50;;;;;;;16.93;52.39;100838.67;221149;1266;138554;-88
2023/06/06 04:28:58;;;;;;;11.50;4.20;;;;;;;17.00;52.77;100838.52;220766;1266;139438;-91
2023/06/06 04:34:03;;;;;;;9.40;4.00;;;;;;;17.11;53.13;100841.53;221807;1267;105835;-88
2023/06/06 04:39:08;;;;;;;9.00;3.70;;;;;;;17.16;53.27;100846.89;220834;1266;141370;-92
2023/06/06 04:44:10;;;;;;;11.80;4.10;;;;;;;17.19;53.40;100845.66;221187;1267;138163;-89
2023/06/06 04:49:12;;;;;;;8.70;3.80;;;;;;;17.23;53.73;100846.73;221171;1266;139417;-92
2023/06/06 04:54:13;;;;;;;10.30;3.90;;;;;;;17.31;53.72;100845.31;221223;1268;137949;-94
2023/06/06 04:59:17;;;;;;;9.70;4.20;;;;;;;17.40;53.68;100852.88;220867;1267;140140;-91
2023/06/06 05:04:18;;;;;;;12.70;4.20;;;;;;;17.58;53.65;100850.46;221105;1266;108942;-93
2023/06/06 05:09:18;;;;;;;9.10;3.80;;;;;;;17.73;53.44;100848.64;220324;1265;140682;-92
2023/06/06 05:14:23;;;;;;;13.80;3.90;;;;;;;17.89;53.23;100847.88;220878;1267;137892;-91
2023/06/06 05:19:23;;;;;;;13.70;4.30;;;;;;;18.06;53.48;100852.85;220312;1269;140552;-91
2023/06/06 05:24:24;;;;;;;12.80;4.30;;;;;;;18.31;53.26;100847.52;220864;1267;139546;-91
2023/06/06 05:29:26;;;;;;;9.70;3.90;;;;;;;18.66;52.65;100846.94;220237;1267;143095;-91
2023/06/06 05:34:26;;;;;;;15.90;4.50;;;;;;;19.16;52.37;100848.61;221008;1268;97498;-92
2023/06/06 05:39:27;;;;;;;12.20;4.10;;;;;;;19.77;51.64;100846.05;220452;1267;140576;-88
2023/06/06 05:44:27;;;;;;;15.50;4.70;;;;;;;20.40;50.41;100848.41;220873;1266;138354;-89
2023/06/06 05:49:29;;;;;;;11.20;4.60;;;;;;;21.13;49.27;100857.81;220585;1265;142809;-91
2023/06/06 05:54:29;;;;;;;11.30;4.50;;;;;;;21.86;48.29;100856.42;220902;1266;138601;-89
2023/06/06 05:59:30;;;;;;;12.20;4.70;;;;;;;22.36;46.51;100864.27;220440;1268;140435;-89
2023/06/06 06:04:30;;;;;;;12.20;4.60;;;;;;;22.85;45.82;100859.85;220959;1267;96393;-90
2023/06/06 06:09:30;;;;;;;14.90;4.40;;;;;;;23.41;44.96;100857.52;220136;1267;139600;-91
2023/06/06 06:14:31;;;;;;;13.80;4.90;;;;;;;24.12;44.40;100858.47;221049;1267;138577;-90
2023/06/06 06:19:31;;;;;;;13.00;4.80;;;;;;;24.82;42.83;100856.38;220320;1267;140010;-88
2023/06/06 06:24:32;;;;;;;13.70;4.60;;;;;;;25.32;41.38;100860.82;221037;1266;138037;-87
2023/06/06 06:29:32;;;;;;;15.50;5.00;;;;;;;25.82;40.43;100864.35;220542;1265;140661;-90
2023/06/06 06:34:33;;;;;;;14.30;5.00;;;;;;;26.05;39.39;100870.75;220921;1266;227396;-88
2023/06/06 06:39:34;;;;;;;14.50;5.00;;;;;;;26.13;38.94;100878.00;220359;1268;139872;-88
2023/06/06 06:44:34;;;;;;;13.20;4.60;;;;;;;26.31;38.53;100880.75;221157;1265;139257;-88
2023/06/06 06:49:39;;;;;;;22.40;5.80;;;;;;;26.49;37.79;100886.27;220818;1267;141016;-89
2023/06/06 06:54:54;;;;;;;13.40;5.00;;;;;;;26.53;37.45;100890.55;220872;1265;138444;-91
2023/06/06 07:00:11;;;;;;;13.00;5.20;;;;;;;26.69;37.69;100892.59;220252;1266;140570;-91
2023/06/06 07:05:12;;;;;;;10.00;4.50;;;;;;;26.87;37.69;100892.04;220857;1267;138089;-91
2023/06/06 07:10:14;;;;;;;12.00;4.60;;;;;;;26.89;37.60;100893.80;220879;1265;140729;-91
2023/06/06 07:15:16;;;;;;;13.90;4.80;;;;;;;26.99;37.76;100892.18;221165;1265;137986;-87
2023/06/06 07:20:23;;;;;;;12.70;5.20;;;;;;;27.00;37.52;100893.59;220695;1266;140136;-86
2023/06/06 07:25:23;;;;;;;13.40;4.70;;;;;;;27.10;37.76;100896.71;220993;1265;138139;-86
2023/06/06 07:30:29;;;;;;;16.80;5.30;;;;;;;27.30;37.46;100894.46;220698;1265;140604;-87
2023/06/06 07:35:32;;;;;;;13.30;4.40;;;;;;;27.23;36.66;100892.60;221163;1268;138268;-87
2023/06/06 07:40:32;;;;;;;11.40;4.00;;;;;;;27.04;36.71;100894.44;220686;1266;140579;-87
2023/06/06 07:45:33;;;;;;;14.00;4.10;;;;;;;27.15;37.59;100894.20;220983;1266;138328;-86
2023/06/06 07:50:33;;;;;;;18.30;4.90;;;;;;;27.40;37.59;100892.64;220552;1265;140272;-87
2023/06/06 07:55:35;;;;;;;12.30;4.70;;;;;;;27.62;37.99;100893.11;220858;1266;138886;-86
2023/06/06 08:00:41;;;;;;;11.80;4.40;;;;;;;27.84;38.04;100883.91;220426;1268;140386;-87
2023/06/06 08:05:41;;;;;;;10.40;4.30;;;;;;;28.02;37.66;100880.33;221010;1265;138620;-87
2023/06/06 08:10:42;;;;;;;11.90;4.80;;;;;;;28.21;37.45;100876.72;220346;1268;140316;-86
2023/06/06 08:15:42;;;;;;;11.20;3.70;;;;;;;28.40;36.67;100873.67;220833;1265;98502;-86
2023/06/06 08:20:43;;;;;;;8.90;4.20;;;;;;;28.42;35.65;100872.17;220261;1266;140287;-85
2023/06/06 08:25:43;;;;;;;11.90;4.20;;;;;;;28.60;35.44;100871.57;220959;1266;138042;-85
2023/06/06 08:30:43;;;;;;;11.10;4.10;;;;;;;28.63;34.83;100871.15;220545;1266;139835;-86
2023/06/06 08:35:44;;;;;;;11.40;3.80;;;;;;;28.59;34.30;100861.66;221054;1266;138992;-86
2023/06/06 08:40:45;;;;;;;8.90;3.90;;;;;;;28.66;35.25;100861.98;220212;1265;142008;-85
2023/06/06 08:45:53;;;;;;;9.20;4.00;;;;;;;28.94;35.66;100857.98;221137;1268;97907;-85
2023/06/06 08:50:56;;;;;;;7.20;3.00;;;;;;;29.09;33.49;100858.86;220183;1265;151634;-86
2023/06/06 08:55:57;;;;;;;9.00;3.40;;;;;;;28.93;32.59;100858.60;220591;1266;138447;-86
2023/06/06 09:00:59;;;;;;;7.10;3.30;;;;;;;29.09;32.54;100855.71;219982;1266;140791;-86
2023/06/06 09:06:00;;;;;;;6.90;2.70;;;;;;;29.22;32.07;100855.13;220701;1265;137974;-86
2023/06/06 09:11:01;;;;;;;15.80;4.00;;;;;;;29.27;31.57;100854.52;220596;1265;140232;-87
2023/06/06 09:16:04;;;;;;;10.70;3.00;;;;;;;29.19;31.86;100851.52;220678;1267;98013;-87
2023/06/06 09:21:05;;;;;;;9.50;3.00;;;;;;;29.51;31.41;100849.70;220196;1265;140222;-88
2023/06/06 09:26:19;;;;;;;7.00;2.70;;;;;;;29.68;30.83;100847.56;220732;1265;137959;-89
2023/06/06 09:31:27;;;;;;;7.80;2.90;;;;;;;30.08;30.09;100850.43;220295;1265;139484;-88
2023/06/06 09:36:29;;;;;;;7.20;2.30;;;;;;;30.32;29.10;100845.10;220922;1265;137913;-91
2023/06/06 09:41:30;;;;;;;9.10;2.60;;;;;;;30.36;28.64;100848.45;220607;1268;140222;-87
2023/06/06 09:46:36;;;;;;;5.20;2.30;;;;;;;30.82;28.55;100844.87;220805;1268;97656;-90
2023/06/06 09:51:40;;;;;;;19.90;3.40;;;;;;;31.15;27.97;100844.11;220152;1265;140300;-88
2023/06/06 09:56:46;;;;;;;5.80;2.10;;;;;;;31.33;27.32;100846.35;220872;1268;137945;-88
2023/06/06 10:01:50;;;;;;;8.20;2.40;;;;;;;30.98;25.80;100838.56;220015;1266;140010;-87
2023/06/06 10:06:53;;;;;;;4.30;1.80;;;;;;;30.81;25.49;100838.23;220597;1265;138037;-89
2023/06/06 10:11:54;;;;;;;9.30;2.60;;;;;;;30.39;24.95;100837.63;220214;1265;140063;-88
2023/06/06 10:16:55;;;;;;;5.00;2.20;;;;;;;30.08;25.70;100840.31;220729;1267;138085;-87
2023/06/06 10:21:56;;;;;;;7.10;2.30;;;;;;;29.82;26.39;100834.36;220251;1265;140497;-87
2023/06/06 10:27:12;;;;;;;6.30;2.10;;;;;;;29.80;27.53;100833.52;220881;1265;138021;-89
2023/06/06 10:32:17;;;;;;;7.80;2.30;;;;;;;29.79;26.71;100836.79;220326;1264;140738;-89
2023/06/06 10:37:18;;;;;;;;;;;;;;;29.36;26.35;100831.50;221261;1265;137916;-88
2023/06/06 10:42:19;;;;;;;7.00;2.20;;;;;;;29.13;26.32;100833.88;220531;1265;125797;-86
2023/06/06 10:47:33;;;;;;;10.90;2.00;;;;;;;29.11;26.85;100831.73;220971;1266;138416;-87
2023/06/06 10:52:45;;;;;;;5.90;1.80;;;;;;;29.44;27.79;100828.20;220680;1265;139925;-88
2023/06/06 10:57:53;;;;;;;3.90;1.90;;;;;;;29.44;26.74;100819.52;221210;1266;97808;-87
2023/06/06 11:03:00;;;;;;;4.00;2.10;;;;;;;29.53;27.16;100817.13;220177;1265;140279;-88
2023/06/06 11:08:01;;;;;;;4.50;1.90;;;;;;;30.04;27.98;100813.89;221041;1265;138724;-87
2023/06/06 11:13:26;;;;;;;6.20;2.60;;;;;;;30.29;27.04;100816.21;220706;1265;139957;-90
2023/06/06 11:18:36;;;;;;;6.70;2.70;;;;;;;30.13;26.78;100809.41;221137;1266;138070;-89
2023/06/06 11:23:41;;;;;;;6.20;2.10;;;;;;;30.38;27.69;100806.54;220480;1266;139130;-91
2023/06/06 11:28:41;;;;;;;8.10;2.40;;;;;;;30.64;27.37;100803.09;221154;1265;97986;-91
2023/06/06 11:33:41;;;;;;;6.50;2.50;;;;;;;30.68;27.20;100803.16;220717;1266;141741;-90
2023/06/06 11:38:42;;;;;;;5.00;2.20;;;;;;;30.44;26.59;100801.94;220841;1268;138408;-90
2023/06/06 11:43:50;;;;;;;8.80;2.50;;;;;;;30.04;26.86;100795.58;220545;1265;140075;-90
2023/06/06 11:49:00;;;;;;;4.20;2.20;;;;;;;30.07;26.71;100799.38;220813;1268;140710;-89
2023/06/06 11:54:17;;;;;;;5.30;2.50;;;;;;;29.82;26.33;100798.54;220648;1265;138037;-90
2023/06/06 11:59:19;;;;;;;7.00;2.30;;;;;;;29.52;26.61;100800.52;220351;1265;140691;-91
2023/06/06 12:04:21;;;;;;;9.20;2.50;;;;;;;29.89;27.65;100796.03;221336;1268;97931;-91
2023/06/06 12:09:23;;;;;;;5.20;2.30;;;;;;;29.97;26.18;100793.19;220456;1264;139308;-90
2023/06/06 12:14:25;;;;;;;5.60;2.10;;;;;;;29.85;26.57;100792.02;220777;1265;138578;-91
2023/06/06 12:19:26;;;;;;;9.60;2.40;;;;;;;29.56;26.29;100788.50;220440;1265;139970;-91
2023/06/06 12:24:29;;;;;;;6.50;2.50;;;;;;;29.33;26.08;100782.38;221042;1266;137936;-91
2023/06/06 12:29:33;;;;;;;9.30;3.00;;;;;;;28.94;26.89;100784.68;220342;1267;140316;-93
2023/06/06 12:34:45;;;;;;;6.20;2.00;;;;;;;28.83;27.24;100783.79;221486;1265;97963;-92
2023/06/06 12:39:46;;;;;;;7.20;2.80;;;;;;;28.69;27.29;100782.10;220353;1265;139053;-92
2023/06/06 12:44:47;;;;;;;4.40;1.80;;;;;;;28.51;26.88;100778.94;221119;1264;138077;-92
2023/06/06 12:49:47;;;;;;;6.90;2.50;;;;;;;28.59;27.43;100772.92;220459;1268;140222;-92
2023/06/06 12:54:48;;;;;;;5.50;2.00;;;;;;;28.60;27.13;100775.27;220998;1266;139973;-90
2023/06/06 12:59:48;;;;;;;5.40;1.90;;;;;;;28.45;27.66;100775.74;220593;1266;141839;-89
2023/06/06 13:04:49;;;;;;;3.80;1.90;;;;;;;28.41;28.09;100773.77;220882;1266;137903;-90
2023/06/06 13:09:49;;;;;;;6.40;2.20;;;;;;;28.49;27.56;100775.60;220439;1265;140450;-91
2023/06/06 13:14:51;;;;;;;4.70;2.10;;;;;;;28.17;27.54;100772.79;221064;1266;137803;-91
2023/06/06 13:19:51;;;;;;;5.10;2.30;;;;;;;27.92;27.55;100771.52;220314;1266;141332;-89
2023/06/06 13:24:52;;;;;;;6.00;2.30;;;;;;;27.70;27.46;100773.50;220960;1265;137893;-92
2023/06/06 13:29:52;;;;;;;4.20;2.10;;;;;;;27.55;27.79;100769.98;220317;1265;140792;-90
2023/06/06 13:34:53;;;;;;;5.50;2.20;;;;;;;27.61;28.14;100765.33;221136;1265;138184;-90
2023/06/06 13:39:53;;;;;;;5.10;2.00;;;;;;;27.50;27.50;100760.30;220553;1264;140187;-88
2023/06/06 13:44:53;;;;;;;4.50;2.00;;;;;;;27.43;27.74;100756.39;221021;1266;138183;-89
2023/06/06 13:49:57;;;;;;;5.50;2.50;;;;;;;27.43;27.65;100750.06;220413;1268;139591;-91
2023/06/06 13:54:58;;;;;;;7.40;2.20;;;;;;;27.49;27.64;100745.23;220742;1265;138009;-92
2023/06/06 13:59:58;;;;;;;6.80;2.30;;;;;;;27.37;27.98;100744.38;220335;1265;139501;-91
2023/06/06 14:04:59;;;;;;;5.80;2.30;;;;;;;27.36;28.07;100740.77;220844;1264;139318;-91
2023/06/06 14:10:00;;;;;;;8.20;3.10;;;;;;;27.39;28.36;100736.66;220380;1266;141329;-91
2023/06/06 14:15:00;;;;;;;8.80;2.30;;;;;;;27.39;28.55;100733.80;220759;1264;138851;-91
2023/06/06 14:20:01;;;;;;;6.80;2.60;;;;;;;27.35;28.85;100728.36;220234;1264;139776;-92
2023/06/06 14:25:01;;;;;;;5.40;2.40;;;;;;;27.44;28.89;100726.36;220701;1266;138063;-90
2023/06/06 14:30:02;;;;;;;6.60;2.50;;;;;;;27.41;28.69;100724.42;220411;1266;140863;-92
2023/06/06 14:35:08;;;;;;;7.40;2.20;;;;;;;27.41;28.56;100724.90;220759;1265;137951;-92
2023/06/06 14:40:10;;;;;;;7.40;2.60;;;;;;;27.26;27.68;100721.19;220632;1265;139826;-92
2023/06/06 14:45:11;;;;;;;7.00;2.20;;;;;;;27.13;28.28;100719.60;221065;1265;138028;-92
2023/06/06 14:50:11;;;;;;;6.80;2.50;;;;;;;27.16;28.33;100716.39;220370;1266;140259;-93
2023/06/06 14:55:12;;;;;;;5.40;2.20;;;;;;;27.18;28.17;100709.91;220703;1266;138187;-91
2023/06/06 15:00:13;;;;;;;5.70;2.10;;;;;;;27.16;28.15;100708.89;220525;1265;139883;-91
2023/06/06 15:05:14;;;;;;;9.50;2.50;;;;;;;27.07;28.43;100709.57;220966;1264;139249;-92
2023/06/06 15:10:15;;;;;;;5.40;2.10;;;;;;;26.97;27.94;100702.52;220588;1265;140212;-92
2023/06/06 15:15:15;;;;;;;7.40;2.40;;;;;;;26.92;28.31;100697.70;221144;1265;138898;-92
2023/06/06 15:20:16;;;;;;;5.30;2.30;;;;;;;26.79;28.46;100697.64;220409;1267;140419;-92
2023/06/06 15:25:16;;;;;;;7.30;2.30;;;;;;;26.67;28.77;100694.71;221103;1265;138691;-91
2023/06/06 15:30:17;;;;;;;7.20;3.10;;;;;;;26.73;30.01;100692.16;220522;1268;140245;-92
2023/06/06 15:35:18;;;;;;;3.80;1.90;;;;;;;26.78;29.87;100689.76;221052;1266;137950;-91
2023/06/06 15:40:19;;;;;;;5.90;2.40;;;;;;;26.77;29.61;100688.70;220717;1266;141610;-91
2023/06/06 15:45:19;;;;;;;8.20;2.50;;;;;;;26.81;29.49;100683.19;221042;1266;137822;-92
2023/06/06 15:50:20;;;;;;;6.20;2.40;;;;;;;26.69;29.42;100681.23;220571;1265;140105;-92
2023/06/06 15:55:20;;;;;;;5.50;2.30;;;;;;;26.48;29.92;100680.40;221126;1265;138099;-92
2023/06/06 16:00:24;;;;;;;4.20;2.00;;;;;;;26.35;30.26;100682.29;220608;1264;140182;-92
2023/06/06 16:05:25;;;;;;;5.00;2.20;;;;;;;26.30;30.17;100683.07;221085;1266;138061;-93
2023/06/06 16:10:25;;;;;;;6.80;2.20;;;;;;;26.22;30.84;100677.06;220633;1268;141379;-92
2023/06/06 16:15:26;;;;;;;5.70;2.10;;;;;;;26.21;31.47;100677.35;221096;1266;138635;-91
2023/06/06 16:20:26;;;;;;;6.10;2.10;;;;;;;26.14;30.93;100675.08;220429;1266;142416;-90
2023/06/06 16:25:27;;;;;;;3.50;1.90;;;;;;;26.05;30.93;100678.26;220889;1266;138161;-92
2023/06/06 16:30:27;;;;;;;6.70;2.30;;;;;;;26.03;31.66;100675.48;220364;1265;140786;-92
2023/06/06 16:35:28;;;;;;;9.40;2.60;;;;;;;25.93;31.39;100668.67;220840;1266;139293;-92
2023/06/06 16:40:28;;;;;;;5.40;2.70;;;;;;;25.80;31.05;100665.91;220497;1266;140593;-91
2023/06/06 16:45:31;;;;;;;8.40;2.30;;;;;;;25.73;31.52;100670.52;221047;1266;139280;-91
2023/06/06 16:50:32;;;;;;;9.70;2.30;;;;;;;25.75;32.71;100669.32;220494;1266;140105;-91
2023/06/06 16:55:32;;;;;;;6.20;2.30;;;;;;;25.78;32.86;100666.48;221047;1266;138071;-90
2023/06/06 17:00:33;;;;;;;7.40;2.60;;;;;;;25.85;33.33;100661.33;220621;1265;140637;-92
2023/06/06 17:05:34;;;;;;;11.00;2.50;;;;;;;25.84;32.90;100660.02;221055;1264;138111;-93
2023/06/06 17:10:35;;;;;;;5.90;2.20;;;;;;;25.71;31.61;100658.92;220645;1266;140743;-91
2023/06/06 17:15:35;;;;;;;7.10;2.80;;;;;;;25.68;33.13;100657.88;221196;1266;138369;-91
2023/06/06 17:20:37;;;;;;;6.60;2.20;;;;;;;25.67;33.13;100655.75;220552;1266;140140;-91
2023/06/06 17:25:37;;;;;;;6.40;2.20;;;;;;;25.61;32.96;100657.00;220996;1268;138377;-91
2023/06/06 17:30:38;;;;;;;9.20;3.60;;;;;;;25.53;33.87;100654.06;220356;1266;139937;-92
2023/06/06 17:35:38;;;;;;;10.50;3.80;;;;;;;25.49;33.93;100656.36;221136;1266;139274;-91
2023/06/06 17:40:40;;;;;;;11.40;3.10;;;;;;;25.40;34.67;100653.23;220981;1265;140890;-90
2023/06/06 17:45:41;;;;;;;11.70;3.40;;;;;;;25.33;34.73;100653.33;221110;1268;138111;-90
2023/06/06 17:50:41;;;;;;;8.00;3.00;;;;;;;25.26;35.53;100654.14;220680;1266;140691;-90
2023/06/06 17:55:42;;;;;;;8.20;3.10;;;;;;;25.14;36.05;100656.77;220886;1268;138476;-92
2023/06/06 18:00:42;;;;;;;10.00;2.70;;;;;;;25.01;36.50;100655.89;220940;1266;140284;-90
2023/06/06 18:05:42;;;;;;;9.30;2.20;;;;;;;24.88;36.91;100656.55;221253;1266;138900;-92
2023/06/06 18:10:43;;;;;;;7.80;2.40;;;;;;;24.75;37.09;100658.97;220680;1266;140637;-91
2023/06/06 18:15:44;;;;;;;7.70;2.30;;;;;;;24.59;37.11;100654.88;221168;1265;137651;-91
2023/06/06 18:20:45;;;;;;;8.40;2.70;;;;;;;24.42;37.22;100652.55;220562;1265;140094;-91
2023/06/06 18:25:48;;;;;;;7.30;2.70;;;;;;;24.20;37.62;100654.30;221215;1265;138529;-90
2023/06/06 18:30:48;;;;;;;7.10;2.70;;;;;;;24.03;38.50;100653.23;220509;1268;141771;-91
2023/06/06 18:35:49;;;;;;;6.00;2.50;;;;;;;23.89;38.41;100653.61;220966;1266;245406;-91
2023/06/06 18:40:50;;;;;;;6.70;2.50;;;;;;;23.74;38.51;100653.23;220782;1266;140233;-91
2023/06/06 18:45:50;;;;;;;9.50;2.50;;;;;;;23.57;38.53;100655.09;221424;1268;96709;-92
2023/06/06 18:50:51;;;;;;;6.40;2.60;;;;;;;23.37;38.82;100660.83;220472;1268;140734;-90
2023/06/06 18:55:51;;;;;;;6.90;2.40;;;;;;;23.19;39.14;100662.48;220854;1268;138334;-91
2023/06/06 19:00:52;;;;;;;15.60;3.90;;;;;;;23.06;40.52;100669.60;220485;1268;141302;-90
2023/06/06 19:05:52;;;;;;;14.70;4.30;;;;;;;22.92;42.66;100665.67;220937;1265;138437;-90
2023/06/06 19:10:53;;;;;;;6.80;3.10;;;;;;;22.72;41.78;100668.33;220467;1266;140041;-89
2023/06/06 19:15:53;;;;;;;7.70;2.90;;;;;;;22.51;42.43;100674.25;221276;1268;97618;-91
2023/06/06 19:20:54;;;;;;;9.10;3.60;;;;;;;22.33;42.56;100678.45;220437;1266;140740;-92
2023/06/06 19:25:55;;;;;;;5.80;2.90;;;;;;;22.06;43.72;100679.02;220997;1268;138009;-92
2023/06/06 19:30:56;;;;;;;10.50;3.50;;;;;;;21.87;43.43;100680.65;220541;1266;140155;-91
2023/06/06 19:35:57;;;;;;;14.70;3.90;;;;;;;21.69;43.81;100685.05;221117;1266;138267;-92
2023/06/06 19:40:57;;;;;;;8.70;3.30;;;;;;;21.53;44.64;100690.08;220433;1265;141229;-92
2023/06/06 19:45:58;;;;;;;8.90;2.80;;;;;;;21.39;44.36;100699.52;220907;1266;111342;-90
2023/06/06 19:50:58;;;;;;;14.00;3.70;;;;;;;21.28;44.59;100703.13;220753;1266;139422;-90
2023/06/06 19:55:59;;;;;;;7.40;3.30;;;;;;;21.15;44.71;100699.98;221701;1265;138322;-88
2023/06/06 20:00:59;;;;;;;6.30;2.70;;;;;;;20.99;44.86;100703.84;220643;1266;140073;-90
2023/06/06 20:06:00;;;;;;;7.70;3.10;;;;;;;20.82;44.96;100695.80;221030;1266;137965;-90
2023/06/06 20:11:01;;;;;;;7.50;3.40;;;;;;;20.66;45.38;100695.83;220770;1266;141100;-89
2023/06/06 20:16:01;;;;;;;6.00;2.50;;;;;;;20.48;45.25;100699.88;221546;1266;97455;-90
2023/06/06 20:21:02;;;;;;;6.40;3.10;;;;;;;20.34;45.37;100701.02;220763;1266;140507;-91
2023/06/06 20:26:04;;;;;;;7.00;2.90;;;;;;;20.23;45.78;100696.58;221050;1268;138168;-89
2023/06/06 20:31:04;;;;;;;7.30;3.00;;;;;;;20.11;46.05;100699.18;220995;1266;140278;-89
2023/06/06 20:36:05;;;;;;;6.90;2.80;;;;;;;20.04;46.59;100699.56;221939;1268;138179;-89
2023/06/06 20:41:06;;;;;;;8.30;2.90;;;;;;;19.97;47.20;100698.99;220967;1267;139989;-88
2023/06/06 20:46:06;;;;;;;5.60;2.60;;;;;;;19.89;46.46;100699.19;221463;1266;97982;-91
2023/06/06 20:51:06;;;;;;;9.00;3.50;;;;;;;19.81;46.90;100696.43;220669;1268;140009;-91
2023/06/06 20:56:07;;;;;;;10.20;3.60;;;;;;;19.74;47.58;100698.02;221024;1268;139590;-92
2023/06/06 21:01:07;;;;;;;7.10;3.20;;;;;;;19.63;47.17;100706.70;220738;1268;141224;-90
2023/06/06 21:06:08;;;;;;;8.50;3.60;;;;;;;19.54;46.99;100708.41;221369;1266;138777;-91
2023/06/06 21:11:10;;;;;;;7.10;2.90;;;;;;;19.45;47.19;100702.05;221012;1268;141011;-91
2023/06/06 21:16:11;;;;;;;8.00;3.10;;;;;;;19.36;47.22;100700.90;221477;1265;97927;-90
2023/06/06 21:21:11;;;;;;;8.00;3.30;;;;;;;19.26;47.87;100699.82;220366;1268;139670;-85
2023/06/06 21:26:11;;;;;;;11.40;3.30;;;;;;;19.15;48.01;100704.80;220697;1266;137865;-86
2023/06/06 21:31:12;;;;;;;9.90;2.90;;;;;;;19.06;48.18;100702.52;220262;1268;206906;-86
2023/06/06 21:36:12;;;;;;;7.80;3.20;;;;;;;18.95;48.23;100702.23;220699;1268;138741;-86
2023/06/06 21:41:14;;;;;;;7.90;3.10;;;;;;;18.85;48.01;100702.81;220483;1268;140310;-86
2023/06/06 21:46:16;;;;;;;5.50;2.90;;;;;;;18.76;48.11;100703.45;221118;1267;97674;-87
2023/06/06 21:51:17;;;;;;;9.60;3.10;;;;;;;18.70;48.23;100699.11;220095;1268;139632;-85
2023/06/06 21:56:17;;;;;;;7.40;3.20;;;;;;;18.65;48.54;100695.61;220548;1265;138017;-86
2023/06/06 22:01:18;;;;;;;6.90;3.20;;;;;;;18.61;48.43;100695.61;220235;1268;142506;-87
2023/06/06 22:06:18;;;;;;;7.70;3.20;;;;;;;18.59;48.29;100699.54;220716;1266;138119;-86
2023/06/06 22:11:19;;;;;;;11.00;3.70;;;;;;;18.59;48.60;100700.73;220490;1267;139725;-86
2023/06/06 22:16:19;;;;;;;9.70;3.50;;;;;;;18.58;48.76;100702.98;221154;1265;99209;-86
2023/06/06 22:21:20;;;;;;;8.40;3.20;;;;;;;18.58;49.08;100702.27;220558;1268;139805;-86
2023/06/06 22:26:21;;;;;;;9.50;2.90;;;;;;;18.58;49.40;100701.14;220872;1268;137902;-87
2023/06/06 22:31:21;;;;;;;9.80;3.30;;;;;;;18.59;49.90;100703.52;220439;1267;140970;-88
2023/06/06 22:36:21;;;;;;;8.90;4.00;;;;;;;18.60;50.50;100703.89;220983;1267;138124;-86
2023/06/06 22:41:22;;;;;;;5.90;3.10;;;;;;;18.60;51.08;100704.22;220469;1267;139755;-87
2023/06/06 22:46:22;;;;;;;9.10;3.50;;;;;;;18.59;51.00;100704.80;221276;1268;98854;-88
2023/06/06 22:51:23;;;;;;;8.00;3.70;;;;;;;18.55;51.27;100705.00;220563;1268;139966;-88